sensor_id;sensor_type;location;lat;lon;timestamp;pressure;altitude;pressure_sealevel;temperature;humidity
15880;BME280;61999;51.514;14.614;2022-08-06T00:00:10;100423.69;;;13.51;53.41
15880;BME280;61999;51.514;14.614;2022-08-06T00:02:39;100418.09;;;13.44;52.49
15880;BME280;61999;51.514;14.614;2022-08-06T00:05:08;100426.00;;;13.65;52.44
15880;BME280;61999;51.514;14.614;2022-08-06T00:07:37;100426.06;;;13.02;53.83
15880;BME280;61999;51.514;14.614;2022-08-06T00:10:05;100419.66;;;12.84;54.33
15880;BME280;61999;51.514;14.614;2022-08-06T00:12:34;100415.63;;;13.01;54.50
15880;BME280;61999;51.514;14.614;2022-08-06T00:15:06;100406.00;;;12.88;51.92
15880;BME280;61999;51.514;14.614;2022-08-06T00:17:34;100402.63;;;13.19;53.33
15880;BME280;61999;51.514;14.614;2022-08-06T00:20:06;100390.72;;;13.34;52.33
15880;BME280;61999;51.514;14.614;2022-08-06T00:22:34;100381.38;;;14.11;49.63
15880;BME280;61999;51.514;14.614;2022-08-06T00:25:03;100356.72;;;14.30;49.34
15880;BME280;61999;51.514;14.614;2022-08-06T00:27:32;100328.38;;;14.49;48.81
15880;BME280;61999;51.514;14.614;2022-08-06T00:30:00;100317.22;;;14.56;48.16
15880;BME280;61999;51.514;14.614;2022-08-06T00:32:29;100331.72;;;14.52;48.45
15880;BME280;61999;51.514;14.614;2022-08-06T00:34:57;100348.19;;;14.65;47.96
15880;BME280;61999;51.514;14.614;2022-08-06T00:37:25;100364.22;;;14.34;48.54
15880;BME280;61999;51.514;14.614;2022-08-06T00:39:55;100377.03;;;13.90;49.93
15880;BME280;61999;51.514;14.614;2022-08-06T00:42:24;100390.53;;;13.56;50.77
15880;BME280;61999;51.514;14.614;2022-08-06T00:44:53;100422.69;;;12.47;53.47
15880;BME280;61999;51.514;14.614;2022-08-06T00:47:22;100443.94;;;10.38;60.59
15880;BME280;61999;51.514;14.614;2022-08-06T00:49:51;100460.84;;;11.19;58.08
15880;BME280;61999;51.514;14.614;2022-08-06T00:52:19;100449.78;;;11.94;56.44
15880;BME280;61999;51.514;14.614;2022-08-06T00:54:47;100416.06;;;12.94;52.86
15880;BME280;61999;51.514;14.614;2022-08-06T00:57:15;100431.38;;;12.91;53.13
15880;BME280;61999;51.514;14.614;2022-08-06T00:59:43;100456.13;;;12.25;54.85
15880;BME280;61999;51.514;14.614;2022-08-06T01:02:11;100446.44;;;12.58;54.11
15880;BME280;61999;51.514;14.614;2022-08-06T01:04:39;100441.41;;;12.87;52.81
15880;BME280;61999;51.514;14.614;2022-08-06T01:07:09;100449.69;;;12.83;54.04
15880;BME280;61999;51.514;14.614;2022-08-06T01:09:37;100426.13;;;13.33;51.93
15880;BME280;61999;51.514;14.614;2022-08-06T01:12:06;100436.03;;;13.61;50.76
15880;BME280;61999;51.514;14.614;2022-08-06T01:14:37;100443.69;;;13.13;51.94
15880;BME280;61999;51.514;14.614;2022-08-06T01:17:14;100431.63;;;12.88;53.21
15880;BME280;61999;51.514;14.614;2022-08-06T01:19:51;100440.81;;;12.84;53.52
15880;BME280;61999;51.514;14.614;2022-08-06T01:22:46;100440.47;;;11.32;58.63
15880;BME280;61999;51.514;14.614;2022-08-06T01:26:01;100441.06;;;12.48;54.95
15880;BME280;61999;51.514;14.614;2022-08-06T01:28:42;100445.56;;;12.25;55.48
15880;BME280;61999;51.514;14.614;2022-08-06T01:31:15;100446.78;;;12.21;56.00
15880;BME280;61999;51.514;14.614;2022-08-06T01:33:50;100444.03;;;12.99;53.68
15880;BME280;61999;51.514;14.614;2022-08-06T01:36:24;100446.66;;;13.20;52.35
15880;BME280;61999;51.514;14.614;2022-08-06T01:38:58;100444.34;;;13.57;51.51
15880;BME280;61999;51.514;14.614;2022-08-06T01:41:34;100448.38;;;12.56;54.31
15880;BME280;61999;51.514;14.614;2022-08-06T01:44:12;100438.91;;;13.28;52.95
15880;BME280;61999;51.514;14.614;2022-08-06T01:46:46;100445.88;;;13.29;52.49
15880;BME280;61999;51.514;14.614;2022-08-06T01:49:21;100447.00;;;12.30;55.52
15880;BME280;61999;51.514;14.614;2022-08-06T01:51:54;100440.78;;;11.74;58.23
15880;BME280;61999;51.514;14.614;2022-08-06T01:54:28;100440.81;;;12.84;53.93
15880;BME280;61999;51.514;14.614;2022-08-06T01:57:00;100454.47;;;11.79;57.40
15880;BME280;61999;51.514;14.614;2022-08-06T01:59:33;100459.38;;;11.50;59.32
15880;BME280;61999;51.514;14.614;2022-08-06T02:02:06;100454.44;;;12.36;56.24
15880;BME280;61999;51.514;14.614;2022-08-06T02:04:40;100462.00;;;12.84;54.84
15880;BME280;61999;51.514;14.614;2022-08-06T02:07:12;100472.72;;;11.82;58.11
15880;BME280;61999;51.514;14.614;2022-08-06T02:09:43;100473.16;;;11.43;59.01
15880;BME280;61999;51.514;14.614;2022-08-06T02:12:17;100472.72;;;11.82;57.49
15880;BME280;61999;51.514;14.614;2022-08-06T02:14:52;100479.56;;;12.08;57.14
15880;BME280;61999;51.514;14.614;2022-08-06T02:17:27;100502.22;;;9.84;64.18
15880;BME280;61999;51.514;14.614;2022-08-06T02:19:58;100490.28;;;11.02;60.95
15880;BME280;61999;51.514;14.614;2022-08-06T02:22:29;100494.91;;;10.63;62.31
15880;BME280;61999;51.514;14.614;2022-08-06T02:25:04;100497.09;;;11.28;58.65
15880;BME280;61999;51.514;14.614;2022-08-06T02:27:38;100483.41;;;11.23;59.89
15880;BME280;61999;51.514;14.614;2022-08-06T02:30:11;100493.66;;;11.04;59.68
15880;BME280;61999;51.514;14.614;2022-08-06T02:32:40;100503.91;;;11.20;59.46
15880;BME280;61999;51.514;14.614;2022-08-06T02:35:09;100495.53;;;11.72;57.29
15880;BME280;61999;51.514;14.614;2022-08-06T02:37:44;100497.72;;;12.12;55.59
15880;BME280;61999;51.514;14.614;2022-08-06T02:40:22;100498.22;;;11.02;58.79
15880;BME280;61999;51.514;14.614;2022-08-06T02:42:59;100504.75;;;11.20;58.52
15880;BME280;61999;51.514;14.614;2022-08-06T02:45:36;100510.94;;;11.08;58.29
15880;BME280;61999;51.514;14.614;2022-08-06T02:48:15;100511.09;;;11.42;57.19
15880;BME280;61999;51.514;14.614;2022-08-06T02:50:48;100518.47;;;10.77;58.43
15880;BME280;61999;51.514;14.614;2022-08-06T02:53:22;100521.50;;;10.47;59.53
15880;BME280;61999;51.514;14.614;2022-08-06T02:56:00;100530.75;;;10.16;59.79
15880;BME280;61999;51.514;14.614;2022-08-06T02:58:35;100531.50;;;10.67;56.25
15880;BME280;61999;51.514;14.614;2022-08-06T03:01:14;100529.47;;;10.71;55.62
15880;BME280;61999;51.514;14.614;2022-08-06T03:03:46;100522.25;;;11.45;52.87
15880;BME280;61999;51.514;14.614;2022-08-06T03:06:18;100526.03;;;11.76;52.81
15880;BME280;61999;51.514;14.614;2022-08-06T03:08:51;100532.31;;;11.98;50.83
15880;BME280;61999;51.514;14.614;2022-08-06T03:11:22;100529.47;;;12.23;50.15
15880;BME280;61999;51.514;14.614;2022-08-06T03:13:52;100538.69;;;12.40;50.59
15880;BME280;61999;51.514;14.614;2022-08-06T03:16:23;100536.03;;;12.07;50.75
15880;BME280;61999;51.514;14.614;2022-08-06T03:18:54;100545.66;;;12.19;50.10
15880;BME280;61999;51.514;14.614;2022-08-06T03:21:23;100562.31;;;10.67;52.73
15880;BME280;61999;51.514;14.614;2022-08-06T03:23:54;100570.94;;;10.69;54.01
15880;BME280;61999;51.514;14.614;2022-08-06T03:26:25;100576.16;;;10.58;53.88
15880;BME280;61999;51.514;14.614;2022-08-06T03:28:55;100586.91;;;10.55;53.04
15880;BME280;61999;51.514;14.614;2022-08-06T03:31:26;100581.97;;;11.35;51.91
15880;BME280;61999;51.514;14.614;2022-08-06T03:33:55;100589.56;;;11.86;50.41
15880;BME280;61999;51.514;14.614;2022-08-06T03:36:26;100584.19;;;11.88;49.56
15880;BME280;61999;51.514;14.614;2022-08-06T03:38:58;100595.25;;;11.93;49.81
15880;BME280;61999;51.514;14.614;2022-08-06T03:41:33;100592.72;;;12.02;49.63
15880;BME280;61999;51.514;14.614;2022-08-06T03:44:03;100605.16;;;12.47;48.39
15880;BME280;61999;51.514;14.614;2022-08-06T03:46:41;100607.47;;;11.82;50.07
15880;BME280;61999;51.514;14.614;2022-08-06T03:49:18;100612.50;;;12.43;48.81
15880;BME280;61999;51.514;14.614;2022-08-06T03:51:51;100609.47;;;11.20;51.88
15880;BME280;61999;51.514;14.614;2022-08-06T03:54:28;100618.09;;;9.84;55.63
15880;BME280;61999;51.514;14.614;2022-08-06T03:57:09;100625.22;;;8.74;58.44
15880;BME280;61999;51.514;14.614;2022-08-06T03:59:42;100626.53;;;9.89;56.40
15880;BME280;61999;51.514;14.614;2022-08-06T04:02:15;100622.22;;;10.65;53.62
15880;BME280;61999;51.514;14.614;2022-08-06T04:04:46;100629.91;;;11.05;53.11
15880;BME280;61999;51.514;14.614;2022-08-06T04:07:16;100623.94;;;11.51;51.64
15880;BME280;61999;51.514;14.614;2022-08-06T04:09:45;100642.66;;;11.48;51.10
15880;BME280;61999;51.514;14.614;2022-08-06T04:12:14;100639.41;;;10.45;52.80
15880;BME280;61999;51.514;14.614;2022-08-06T04:14:43;100653.63;;;11.18;52.09
15880;BME280;61999;51.514;14.614;2022-08-06T04:17:15;100649.66;;;11.12;50.72
15880;BME280;61999;51.514;14.614;2022-08-06T04:19:45;100645.50;;;10.20;53.29
15880;BME280;61999;51.514;14.614;2022-08-06T04:22:14;100651.78;;;10.94;52.17
15880;BME280;61999;51.514;14.614;2022-08-06T04:24:43;100653.91;;;9.59;53.70
15880;BME280;61999;51.514;14.614;2022-08-06T04:27:13;100659.72;;;9.10;56.20
15880;BME280;61999;51.514;14.614;2022-08-06T04:29:45;100659.31;;;10.11;54.12
15880;BME280;61999;51.514;14.614;2022-08-06T04:32:18;100664.69;;;9.96;53.00
15880;BME280;61999;51.514;14.614;2022-08-06T04:34:47;100678.81;;;9.95;53.70
15880;BME280;61999;51.514;14.614;2022-08-06T04:37:17;100679.69;;;10.21;52.45
15880;BME280;61999;51.514;14.614;2022-08-06T04:39:45;100692.28;;;9.64;53.48
15880;BME280;61999;51.514;14.614;2022-08-06T04:42:17;100688.72;;;9.92;53.79
15880;BME280;61999;51.514;14.614;2022-08-06T04:44:46;100694.75;;;8.68;56.17
15880;BME280;61999;51.514;14.614;2022-08-06T04:47:16;100684.09;;;9.41;55.32
15880;BME280;61999;51.514;14.614;2022-08-06T04:49:45;100695.28;;;9.72;53.59
15880;BME280;61999;51.514;14.614;2022-08-06T04:52:21;100696.72;;;9.22;54.67
15880;BME280;61999;51.514;14.614;2022-08-06T04:54:49;100695.69;;;10.18;54.08
15880;BME280;61999;51.514;14.614;2022-08-06T04:57:17;100693.16;;;9.08;54.89
15880;BME280;61999;51.514;14.614;2022-08-06T04:59:45;100704.81;;;9.19;55.27
15880;BME280;61999;51.514;14.614;2022-08-06T05:02:13;100695.22;;;9.32;55.17
15880;BME280;61999;51.514;14.614;2022-08-06T05:04:44;100700.88;;;8.40;58.55
15880;BME280;61999;51.514;14.614;2022-08-06T05:07:18;100705.41;;;8.81;56.39
15880;BME280;61999;51.514;14.614;2022-08-06T05:09:47;100705.94;;;8.43;57.56
15880;BME280;61999;51.514;14.614;2022-08-06T05:12:21;100714.06;;;8.97;56.48
15880;BME280;61999;51.514;14.614;2022-08-06T05:14:55;100714.59;;;9.02;56.17
15880;BME280;61999;51.514;14.614;2022-08-06T05:17:32;100713.50;;;8.92;55.14
15880;BME280;61999;51.514;14.614;2022-08-06T05:20:11;100713.28;;;8.66;57.09
15880;BME280;61999;51.514;14.614;2022-08-06T05:22:44;100720.38;;;8.36;57.16
15880;BME280;61999;51.514;14.614;2022-08-06T05:25:13;100730.31;;;8.45;56.87
15880;BME280;61999;51.514;14.614;2022-08-06T05:27:45;100709.97;;;8.49;56.25
15880;BME280;61999;51.514;14.614;2022-08-06T05:30:13;100727.72;;;8.59;56.45
15880;BME280;61999;51.514;14.614;2022-08-06T05:32:42;100720.88;;;8.12;57.87
15880;BME280;61999;51.514;14.614;2022-08-06T05:35:13;100727.75;;;8.88;55.72
15880;BME280;61999;51.514;14.614;2022-08-06T05:37:41;100744.97;;;9.49;53.61
15880;BME280;61999;51.514;14.614;2022-08-06T05:40:10;100738.84;;;9.07;54.82
15880;BME280;61999;51.514;14.614;2022-08-06T05:42:39;100746.47;;;8.39;55.96
15880;BME280;61999;51.514;14.614;2022-08-06T05:45:12;100746.91;;;9.19;54.16
15880;BME280;61999;51.514;14.614;2022-08-06T05:47:47;100750.84;;;8.24;56.63
15880;BME280;61999;51.514;14.614;2022-08-06T05:50:22;100748.91;;;8.86;55.07
15880;BME280;61999;51.514;14.614;2022-08-06T05:53:02;100747.88;;;8.75;55.84
15880;BME280;61999;51.514;14.614;2022-08-06T05:55:41;100761.41;;;7.76;57.38
15880;BME280;61999;51.514;14.614;2022-08-06T05:58:17;100760.63;;;8.95;54.93
15880;BME280;61999;51.514;14.614;2022-08-06T06:00:52;100774.06;;;8.46;55.47
15880;BME280;61999;51.514;14.614;2022-08-06T06:03:22;100776.94;;;8.72;55.41
15880;BME280;61999;51.514;14.614;2022-08-06T06:05:54;100771.03;;;8.82;54.94
15880;BME280;61999;51.514;14.614;2022-08-06T06:08:24;100764.56;;;8.88;55.00
15880;BME280;61999;51.514;14.614;2022-08-06T06:10:54;100778.69;;;8.57;55.32
15880;BME280;61999;51.514;14.614;2022-08-06T06:13:25;100777.59;;;7.53;58.43
15880;BME280;61999;51.514;14.614;2022-08-06T06:16:09;100783.75;;;8.90;54.52
15880;BME280;61999;51.514;14.614;2022-08-06T06:19:02;100783.28;;;9.12;54.34
15880;BME280;61999;51.514;14.614;2022-08-06T06:21:59;100782.31;;;9.27;53.13
15880;BME280;61999;51.514;14.614;2022-08-06T06:24:38;100785.19;;;9.51;52.38
15880;BME280;61999;51.514;14.614;2022-08-06T06:27:16;100788.19;;;9.74;52.22
15880;BME280;61999;51.514;14.614;2022-08-06T06:29:57;100781.19;;;10.67;50.87
15880;BME280;61999;51.514;14.614;2022-08-06T06:32:41;100788.13;;;10.68;48.95
15880;BME280;61999;51.514;14.614;2022-08-06T06:35:26;100796.97;;;10.54;50.71
15880;BME280;61999;51.514;14.614;2022-08-06T06:38:18;100796.16;;;10.79;50.01
15880;BME280;61999;51.514;14.614;2022-08-06T06:40:58;100804.94;;;9.73;52.64
15880;BME280;61999;51.514;14.614;2022-08-06T06:43:48;100795.00;;;9.35;53.57
15880;BME280;61999;51.514;14.614;2022-08-06T06:46:26;100803.78;;;9.63;52.99
15880;BME280;61999;51.514;14.614;2022-08-06T06:49:06;100810.19;;;10.27;51.36
15880;BME280;61999;51.514;14.614;2022-08-06T06:51:41;100797.00;;;10.67;49.12
15880;BME280;61999;51.514;14.614;2022-08-06T06:54:26;100801.44;;;10.79;48.56
15880;BME280;61999;51.514;14.614;2022-08-06T06:56:57;100814.56;;;11.93;47.64
15880;BME280;61999;51.514;14.614;2022-08-06T06:59:33;100808.81;;;10.74;49.81
15880;BME280;61999;51.514;14.614;2022-08-06T07:02:05;100812.22;;;10.89;49.93
15880;BME280;61999;51.514;14.614;2022-08-06T07:04:37;100817.47;;;11.27;47.59
15880;BME280;61999;51.514;14.614;2022-08-06T07:07:07;100818.00;;;11.45;47.13
15880;BME280;61999;51.514;14.614;2022-08-06T07:09:40;100823.34;;;11.56;46.63
15880;BME280;61999;51.514;14.614;2022-08-06T07:12:13;100819.78;;;11.19;47.29
15880;BME280;61999;51.514;14.614;2022-08-06T07:14:46;100815.50;;;11.68;46.75
15880;BME280;61999;51.514;14.614;2022-08-06T07:17:20;100824.97;;;12.55;44.81
15880;BME280;61999;51.514;14.614;2022-08-06T07:19:53;100827.13;;;12.61;44.15
15880;BME280;61999;51.514;14.614;2022-08-06T07:22:24;100828.69;;;13.10;43.47
15880;BME280;61999;51.514;14.614;2022-08-06T07:24:59;100830.16;;;12.68;43.34
15880;BME280;61999;51.514;14.614;2022-08-06T07:27:33;100832.22;;;12.16;43.93
15880;BME280;61999;51.514;14.614;2022-08-06T07:30:05;100837.41;;;12.42;44.06
15880;BME280;61999;51.514;14.614;2022-08-06T07:32:37;100840.91;;;10.93;48.07
15880;BME280;61999;51.514;14.614;2022-08-06T07:35:09;100847.63;;;12.35;44.69
15880;BME280;61999;51.514;14.614;2022-08-06T07:37:44;100840.28;;;12.85;42.30
15880;BME280;61999;51.514;14.614;2022-08-06T07:40:24;100844.59;;;13.44;42.61
15880;BME280;61999;51.514;14.614;2022-08-06T07:43:08;100849.81;;;11.80;45.97
15880;BME280;61999;51.514;14.614;2022-08-06T07:45:38;100847.00;;;10.56;49.16
15880;BME280;61999;51.514;14.614;2022-08-06T07:48:11;100845.97;;;11.48;47.14
15880;BME280;61999;51.514;14.614;2022-08-06T07:50:44;100844.69;;;12.14;45.86
15880;BME280;61999;51.514;14.614;2022-08-06T07:53:16;100855.50;;;12.11;46.30
15880;BME280;61999;51.514;14.614;2022-08-06T07:55:48;100860.47;;;12.40;45.12
15880;BME280;61999;51.514;14.614;2022-08-06T07:58:18;100859.44;;;11.81;45.91
15880;BME280;61999;51.514;14.614;2022-08-06T08:00:48;100865.28;;;12.70;44.88
15880;BME280;61999;51.514;14.614;2022-08-06T08:03:18;100862.91;;;12.19;45.23
15880;BME280;61999;51.514;14.614;2022-08-06T08:06:07;100858.97;;;11.88;45.25
15880;BME280;61999;51.514;14.614;2022-08-06T08:08:49;100866.16;;;12.82;43.83
15880;BME280;61999;51.514;14.614;2022-08-06T08:11:22;100869.38;;;13.09;42.85
15880;BME280;61999;51.514;14.614;2022-08-06T08:13:55;100869.13;;;13.12;43.26
15880;BME280;61999;51.514;14.614;2022-08-06T08:16:27;100868.44;;;13.33;42.03
15880;BME280;61999;51.514;14.614;2022-08-06T08:18:57;100866.97;;;13.85;41.26
15880;BME280;61999;51.514;14.614;2022-08-06T08:21:27;100877.69;;;13.50;40.99
15880;BME280;61999;51.514;14.614;2022-08-06T08:23:56;100868.91;;;12.45;42.62
15880;BME280;61999;51.514;14.614;2022-08-06T08:26:26;100874.03;;;12.59;42.65
15880;BME280;61999;51.514;14.614;2022-08-06T08:29:04;100869.97;;;13.13;40.47
15880;BME280;61999;51.514;14.614;2022-08-06T08:31:33;100874.22;;;13.38;41.34
15880;BME280;61999;51.514;14.614;2022-08-06T08:34:01;100881.63;;;11.79;43.71
15880;BME280;61999;51.514;14.614;2022-08-06T08:36:29;100893.91;;;12.41;42.74
15880;BME280;61999;51.514;14.614;2022-08-06T08:38:57;100879.97;;;11.65;43.94
15880;BME280;61999;51.514;14.614;2022-08-06T08:41:33;100878.94;;;12.29;41.63
15880;BME280;61999;51.514;14.614;2022-08-06T08:44:05;100873.38;;;12.44;43.64
15880;BME280;61999;51.514;14.614;2022-08-06T08:46:37;100888.00;;;13.08;41.91
15880;BME280;61999;51.514;14.614;2022-08-06T08:49:12;100886.13;;;13.32;38.71
15880;BME280;61999;51.514;14.614;2022-08-06T08:51:44;100882.88;;;13.85;36.97
15880;BME280;61999;51.514;14.614;2022-08-06T08:54:17;100882.59;;;13.99;36.70
15880;BME280;61999;51.514;14.614;2022-08-06T08:56:49;100881.16;;;14.50;37.57
15880;BME280;61999;51.514;14.614;2022-08-06T08:59:19;100879.00;;;14.86;36.61
15880;BME280;61999;51.514;14.614;2022-08-06T09:01:48;100872.06;;;14.94;36.16
15880;BME280;61999;51.514;14.614;2022-08-06T09:04:20;100878.28;;;14.84;36.40
15880;BME280;61999;51.514;14.614;2022-08-06T09:06:48;100874.41;;;15.30;35.91
15880;BME280;61999;51.514;14.614;2022-08-06T09:09:18;100878.22;;;14.95;36.23
15880;BME280;61999;51.514;14.614;2022-08-06T09:11:48;100878.41;;;15.86;35.93
15880;BME280;61999;51.514;14.614;2022-08-06T09:14:16;100874.50;;;16.09;34.24
15880;BME280;61999;51.514;14.614;2022-08-06T09:16:44;100884.78;;;15.73;35.20
15880;BME280;61999;51.514;14.614;2022-08-06T09:19:13;100895.03;;;16.57;35.80
15880;BME280;61999;51.514;14.614;2022-08-06T09:21:41;100894.19;;;16.47;33.84
15880;BME280;61999;51.514;14.614;2022-08-06T09:24:10;100894.22;;;14.63;34.38
15880;BME280;61999;51.514;14.614;2022-08-06T09:27:05;100888.00;;;15.36;35.22
15880;BME280;61999;51.514;14.614;2022-08-06T09:29:35;100887.00;;;16.28;34.87
15880;BME280;61999;51.514;14.614;2022-08-06T09:32:04;100882.97;;;16.63;34.86
15880;BME280;61999;51.514;14.614;2022-08-06T09:34:37;100886.28;;;15.97;32.71
15880;BME280;61999;51.514;14.614;2022-08-06T09:37:05;100890.94;;;16.82;33.27
15880;BME280;61999;51.514;14.614;2022-08-06T09:39:36;100889.50;;;16.98;32.84
15880;BME280;61999;51.514;14.614;2022-08-06T09:42:08;100888.53;;;17.83;32.65
15880;BME280;61999;51.514;14.614;2022-08-06T09:44:36;100883.06;;;18.02;31.87
15880;BME280;61999;51.514;14.614;2022-08-06T09:47:04;100891.63;;;16.94;32.25
15880;BME280;61999;51.514;14.614;2022-08-06T09:49:43;100890.50;;;17.81;30.64
15880;BME280;61999;51.514;14.614;2022-08-06T09:52:14;100892.53;;;18.33;31.15
15880;BME280;61999;51.514;14.614;2022-08-06T09:54:44;100893.09;;;19.16;31.01
15880;BME280;61999;51.514;14.614;2022-08-06T09:57:14;100893.72;;;19.78;30.46
15880;BME280;61999;51.514;14.614;2022-08-06T09:59:44;100888.19;;;19.37;27.83
15880;BME280;61999;51.514;14.614;2022-08-06T10:02:14;100899.78;;;18.40;29.55
15880;BME280;61999;51.514;14.614;2022-08-06T10:04:45;100896.72;;;19.75;29.62
15880;BME280;61999;51.514;14.614;2022-08-06T10:07:13;100905.19;;;18.84;27.73
15880;BME280;61999;51.514;14.614;2022-08-06T10:09:53;100900.56;;;20.23;28.82
15880;BME280;61999;51.514;14.614;2022-08-06T10:12:24;100897.88;;;20.23;26.74
15880;BME280;61999;51.514;14.614;2022-08-06T10:14:53;100899.78;;;19.89;27.67
15880;BME280;61999;51.514;14.614;2022-08-06T10:17:23;100889.75;;;19.99;25.80
15880;BME280;61999;51.514;14.614;2022-08-06T10:20:07;100890.53;;;20.58;28.89
15880;BME280;61999;51.514;14.614;2022-08-06T10:22:36;100901.59;;;20.55;27.03
15880;BME280;61999;51.514;14.614;2022-08-06T10:25:20;100894.47;;;21.36;26.57
15880;BME280;61999;51.514;14.614;2022-08-06T10:27:53;100890.44;;;21.40;26.56
15880;BME280;61999;51.514;14.614;2022-08-06T10:30:22;100893.81;;;21.42;25.83
15880;BME280;61999;51.514;14.614;2022-08-06T10:32:55;100890.09;;;21.82;24.29
15880;BME280;61999;51.514;14.614;2022-08-06T10:35:27;100882.56;;;22.09;24.68
15880;BME280;61999;51.514;14.614;2022-08-06T10:37:59;100879.19;;;23.14;24.58
15880;BME280;61999;51.514;14.614;2022-08-06T10:40:33;100874.91;;;21.98;23.37
15880;BME280;61999;51.514;14.614;2022-08-06T10:43:04;100890.53;;;20.58;25.00
15880;BME280;61999;51.514;14.614;2022-08-06T10:45:33;100877.72;;;22.50;25.15
15880;BME280;61999;51.514;14.614;2022-08-06T10:48:05;100868.44;;;24.01;23.77
15880;BME280;61999;51.514;14.614;2022-08-06T10:50:34;100878.31;;;24.09;22.28
15880;BME280;61999;51.514;14.614;2022-08-06T10:53:08;100863.78;;;23.74;22.65
15880;BME280;61999;51.514;14.614;2022-08-06T10:55:37;100876.63;;;20.63;23.19
15880;BME280;61999;51.514;14.614;2022-08-06T10:58:08;100861.78;;;21.72;24.49
15880;BME280;61999;51.514;14.614;2022-08-06T11:00:37;100868.66;;;19.96;24.10
15880;BME280;61999;51.514;14.614;2022-08-06T11:03:18;100868.69;;;20.12;25.56
15880;BME280;61999;51.514;14.614;2022-08-06T11:06:00;100868.03;;;22.64;24.21
15880;BME280;61999;51.514;14.614;2022-08-06T11:08:54;100861.75;;;24.12;20.46
15880;BME280;61999;51.514;14.614;2022-08-06T11:11:51;100865.31;;;25.60;20.12
15880;BME280;61999;51.514;14.614;2022-08-06T11:14:26;100853.63;;;27.01;20.96
15880;BME280;61999;51.514;14.614;2022-08-06T11:16:56;100854.03;;;27.56;18.25
15880;BME280;61999;51.514;14.614;2022-08-06T11:19:42;100858.25;;;25.65;19.55
15880;BME280;61999;51.514;14.614;2022-08-06T11:22:37;100850.91;;;26.87;20.93
15880;BME280;61999;51.514;14.614;2022-08-06T11:25:08;100851.47;;;27.68;16.97
15880;BME280;61999;51.514;14.614;2022-08-06T11:27:51;100859.94;;;28.16;17.89
15880;BME280;61999;51.514;14.614;2022-08-06T11:30:36;100859.13;;;29.09;15.35
15880;BME280;61999;51.514;14.614;2022-08-06T11:33:06;100853.03;;;29.62;17.01
15880;BME280;61999;51.514;14.614;2022-08-06T11:35:45;100845.81;;;25.71;16.61
15880;BME280;61999;51.514;14.614;2022-08-06T11:38:58;100851.78;;;26.55;17.75
15880;BME280;61999;51.514;14.614;2022-08-06T11:41:31;100835.91;;;28.95;16.54
15880;BME280;61999;51.514;14.614;2022-08-06T11:44:11;100833.66;;;28.17;16.45
15880;BME280;61999;51.514;14.614;2022-08-06T11:46:45;100824.63;;;25.88;16.95
15880;BME280;61999;51.514;14.614;2022-08-06T11:49:21;100839.50;;;27.37;18.60
15880;BME280;61999;51.514;14.614;2022-08-06T11:51:54;100842.34;;;28.25;17.56
15880;BME280;61999;51.514;14.614;2022-08-06T11:54:26;100851.59;;;29.60;17.00
15880;BME280;61999;51.514;14.614;2022-08-06T11:57:23;100840.56;;;31.21;14.09
15880;BME280;61999;51.514;14.614;2022-08-06T12:00:16;100841.06;;;32.04;14.53
15880;BME280;61999;51.514;14.614;2022-08-06T12:02:57;100842.69;;;32.05;13.54
15880;BME280;61999;51.514;14.614;2022-08-06T12:05:42;100844.16;;;32.29;12.50
15880;BME280;61999;51.514;14.614;2022-08-06T12:08:23;100842.06;;;30.65;13.09
15880;BME280;61999;51.514;14.614;2022-08-06T12:11:28;100852.44;;;32.01;13.82
15880;BME280;61999;51.514;14.614;2022-08-06T12:13:58;100831.44;;;28.07;15.27
15880;BME280;61999;51.514;14.614;2022-08-06T12:16:38;100839.69;;;29.91;14.45
15880;BME280;61999;51.514;14.614;2022-08-06T12:19:14;100845.00;;;30.63;13.60
15880;BME280;61999;51.514;14.614;2022-08-06T12:21:42;100840.69;;;31.03;14.25
15880;BME280;61999;51.514;14.614;2022-08-06T12:24:13;100841.41;;;32.41;12.88
15880;BME280;61999;51.514;14.614;2022-08-06T12:26:43;100842.88;;;33.10;13.38
15880;BME280;61999;51.514;14.614;2022-08-06T12:29:11;100836.41;;;34.24;10.94
15880;BME280;61999;51.514;14.614;2022-08-06T12:31:39;100821.00;;;32.49;12.85
15880;BME280;61999;51.514;14.614;2022-08-06T12:34:07;100823.16;;;34.48;11.69
15880;BME280;61999;51.514;14.614;2022-08-06T12:36:37;100822.56;;;35.93;11.80
15880;BME280;61999;51.514;14.614;2022-08-06T12:39:07;100823.16;;;35.01;9.59
15880;BME280;61999;51.514;14.614;2022-08-06T12:41:41;100815.31;;;29.84;12.67
15880;BME280;61999;51.514;14.614;2022-08-06T12:44:11;100805.06;;;29.98;13.71
15880;BME280;61999;51.514;14.614;2022-08-06T12:46:40;100800.53;;;29.50;13.50
15880;BME280;61999;51.514;14.614;2022-08-06T12:49:08;100797.31;;;32.16;11.69
15880;BME280;61999;51.514;14.614;2022-08-06T12:51:37;100813.28;;;33.78;11.33
15880;BME280;61999;51.514;14.614;2022-08-06T12:54:07;100806.47;;;35.08;10.91
15880;BME280;61999;51.514;14.614;2022-08-06T12:56:39;100807.75;;;34.37;11.29
15880;BME280;61999;51.514;14.614;2022-08-06T12:59:11;100802.91;;;35.12;10.26
15880;BME280;61999;51.514;14.614;2022-08-06T13:01:44;100794.25;;;36.13;11.30
15880;BME280;61999;51.514;14.614;2022-08-06T13:04:15;100800.22;;;37.26;10.41
15880;BME280;61999;51.514;14.614;2022-08-06T13:06:46;100799.72;;;37.92;9.81
15880;BME280;61999;51.514;14.614;2022-08-06T13:09:15;100795.66;;;38.91;9.85
15880;BME280;61999;51.514;14.614;2022-08-06T13:11:45;100804.09;;;39.37;9.06
15880;BME280;61999;51.514;14.614;2022-08-06T13:14:14;100800.78;;;38.49;8.34